Time;durP1;ratioP1;P1;durP2;ratioP2;P2;SDS_P1;SDS_P2;PMS_P1;PMS_P2;Temp;Humidity;BMP_temperature;BMP_pressure;BME280_temperature;BME280_humidity;BME280_pressure;Samples;Min_cycle;Max_cycle;Signal;HPM_P1;HPM_P2
2023/10/03 00:00:24;;;;;;;9.80;3.80;;;20.00;1.00;;;;;;5136543;27;20422;-59
2023/10/03 00:02:54;;;;;;;8.32;3.90;;;20.00;1.00;;;;;;5133982;27;20426;-59
2023/10/03 00:05:23;;;;;;;12.20;4.10;;;20.00;1.00;;;;;;5122595;27;20475;-59
2023/10/03 00:07:53;;;;;;;10.90;3.77;;;19.90;1.00;;;;;;5136800;27;20422;-60
2023/10/03 00:10:21;;;;;;;8.57;3.90;;;19.90;99.40;;;;;;5136490;27;20434;-59
2023/10/03 00:12:49;;;;;;;10.77;3.90;;;19.90;99.90;;;;;;5136474;27;20520;-60
2023/10/03 00:15:17;;;;;;;9.17;3.07;;;19.90;99.90;;;;;;5136686;27;20475;-59
2023/10/03 00:17:45;;;;;;;10.50;3.55;;;19.80;99.90;;;;;;5137390;27;20422;-59
2023/10/03 00:20:13;;;;;;;9.38;3.03;;;19.80;89.60;;;;;;5137732;27;20409;-60
2023/10/03 00:22:40;;;;;;;9.60;3.75;;;19.80;99.90;;;;;;5137643;27;20425;-60
2023/10/03 00:25:16;;;;;;;11.10;4.20;;;19.80;99.90;;;;;;5137597;27;20918;-59
2023/10/03 00:27:43;;;;;;;9.00;3.58;;;19.80;99.90;;;;;;5137222;27;20505;-59
2023/10/03 00:30:12;;;;;;;7.63;2.88;;;19.80;1.00;;;;;;5137052;27;20495;-60
2023/10/03 00:32:41;;;;;;;10.57;3.92;;;19.80;99.90;;;;;;5137453;27;20471;-59
2023/10/03 00:35:09;;;;;;;7.68;3.10;;;19.80;99.90;;;;;;5137480;27;20829;-59
2023/10/03 00:37:37;;;;;;;9.27;2.63;;;19.80;99.90;;;;;;5137454;27;20729;-60
2023/10/03 00:40:16;;;;;;;9.63;3.57;;;19.80;1.00;;;;;;5136672;27;20630;-59
2023/10/03 00:42:46;;;;;;;8.02;2.80;;;19.80;1.00;;;;;;5136256;27;20796;-60
2023/10/03 00:45:19;;;;;;;8.43;2.90;;;19.80;99.90;;;;;;5135805;27;20832;-59
2023/10/03 00:47:47;;;;;;;10.07;3.43;;;19.80;99.90;;;;;;5136180;27;20507;-59
2023/10/03 00:50:19;;;;;;;10.18;2.72;;;19.80;1.00;;;;;;5136308;27;20433;-59
2023/10/03 00:52:49;;;;;;;8.50;3.60;;;19.80;1.00;;;;;;5137098;27;20428;-60
2023/10/03 00:55:16;;;;;;;8.57;2.70;;;19.80;1.00;;;;;;5136939;27;20418;-60
2023/10/03 00:57:45;;;;;;;7.80;3.33;;;19.80;1.00;;;;;;5136367;27;20757;-59
2023/10/03 01:00:16;;;;;;;9.13;3.42;;;19.70;1.00;;;;;;5136333;27;20744;-60
2023/10/03 01:02:50;;;;;;;8.40;3.40;;;19.70;1.00;;;;;;5135686;27;20458;-59
2023/10/03 01:05:18;;;;;;;9.95;3.95;;;19.80;1.00;;;;;;5136215;27;20445;-59
2023/10/03 01:07:46;;;;;;;9.57;3.25;;;19.80;1.00;;;;;;5135997;27;20426;-59
2023/10/03 01:10:17;;;;;;;6.80;2.70;;;19.70;1.00;;;;;;5136199;27;20869;-58
2023/10/03 01:12:47;;;;;;;7.57;3.27;;;19.80;1.00;;;;;;5136841;27;20414;-58
2023/10/03 01:15:19;;;;;;;9.38;2.80;;;19.80;1.00;;;;;;5136554;27;20444;-58
2023/10/03 01:17:49;;;;;;;7.10;2.70;;;19.90;1.00;;;;;;5135961;27;20410;-57
2023/10/03 01:20:24;;;;;;;8.50;3.88;;;19.80;99.90;;;;;;5136716;27;20411;-59
2023/10/03 01:22:54;;;;;;;7.97;2.70;;;19.80;1.00;;;;;;5136210;27;20462;-58
2023/10/03 01:25:25;;;;;;;7.57;3.20;;;19.70;1.00;;;;;;5134916;27;20927;-59
2023/10/03 01:27:53;;;;;;;7.95;2.65;;;19.70;1.00;;;;;;5134118;27;20487;-58
2023/10/03 01:30:20;;;;;;;7.13;2.50;;;19.70;1.00;;;;;;5135405;27;20487;-60
2023/10/03 01:32:53;;;;;;;10.52;3.72;;;19.60;1.00;;;;;;5136025;27;20418;-60
2023/10/03 01:35:22;;;;;;;7.60;3.40;;;19.60;1.00;;;;;;5136399;27;20406;-60
2023/10/03 01:37:49;;;;;;;9.05;2.83;;;19.60;1.00;;;;;;5136313;27;20419;-59
2023/10/03 01:40:17;;;;;;;10.23;3.50;;;19.60;1.00;;;;;;5135980;27;20729;-60
2023/10/03 01:42:46;;;;;;;6.30;2.17;;;19.60;1.00;;;;;;5136118;27;20422;-60
2023/10/03 01:45:17;;;;;;;7.88;3.05;;;19.60;1.00;;;;;;5135829;27;20425;-59
2023/10/03 01:47:47;;;;;;;11.30;3.80;;;19.60;1.00;;;;;;5134317;27;20430;-59
2023/10/03 01:50:17;;;;;;;9.02;2.92;;;19.60;1.00;;;;;;5135613;28;20513;-59
2023/10/03 01:52:46;;;;;;;10.05;2.92;;;19.60;1.00;;;;;;5136348;28;20471;-59
2023/10/03 01:55:14;;;;;;;7.32;3.20;;;19.60;1.00;;;;;;5134858;28;20426;-59
2023/10/03 01:57:42;;;;;;;10.27;3.40;;;19.60;1.00;;;;;;5135826;28;20422;-59
2023/10/03 02:00:21;;;;;;;9.68;3.45;;;19.60;1.00;;;;;;5135882;28;20423;-58
2023/10/03 02:02:50;;;;;;;9.27;3.22;;;19.60;1.00;;;;;;5134417;28;20458;-59
2023/10/03 02:05:19;;;;;;;9.75;3.42;;;19.50;1.00;;;;;;5120700;28;20411;-57
2023/10/03 02:07:46;;;;;;;11.05;3.38;;;19.50;1.00;;;;;;5135673;28;20429;-59
2023/10/03 02:10:14;;;;;;;10.25;3.05;;;19.50;1.00;;;;;;5135840;28;20434;-57
2023/10/03 02:12:48;;;;;;;9.68;3.53;;;19.40;1.00;;;;;;5135417;28;20516;-59
2023/10/03 02:15:20;;;;;;;8.23;2.75;;;19.40;1.00;;;;;;5136143;28;20426;-59
2023/10/03 02:17:49;;;;;;;8.25;2.72;;;19.40;1.00;;;;;;5134954;28;20422;-59
2023/10/03 02:20:20;;;;;;;9.23;3.15;;;19.40;1.00;;;;;;5135527;28;20407;-59
2023/10/03 02:22:55;;;;;;;9.88;3.53;;;19.30;1.00;;;;;;5135434;28;20430;-59
2023/10/03 02:25:23;;;;;;;8.27;3.33;;;19.30;1.00;;;;;;5135053;28;20845;-59
2023/10/03 02:27:53;;;;;;;9.55;2.67;;;19.30;1.00;;;;;;5136052;28;20452;-59
2023/10/03 02:30:25;;;;;;;8.57;3.22;;;19.20;1.00;;;;;;5135738;28;20434;-58
2023/10/03 02:32:54;;;;;;;9.25;3.70;;;19.20;1.00;;;;;;5135262;28;20422;-59
2023/10/03 02:35:24;;;;;;;9.57;2.78;;;19.20;1.00;;;;;;5135680;28;20475;-58
2023/10/03 02:37:53;;;;;;;7.90;2.83;;;19.20;1.00;;;;;;5135976;27;20462;-58
2023/10/03 02:40:23;;;;;;;7.22;2.63;;;19.20;1.00;;;;;;5139735;27;20501;-59
2023/10/03 02:42:51;;;;;;;7.63;2.88;;;19.20;1.00;;;;;;5139726;27;20428;-58
2023/10/03 02:45:22;;;;;;;8.90;3.17;;;19.10;1.00;;;;;;5138953;27;20421;-58
2023/10/03 02:47:53;;;;;;;6.07;2.50;;;19.10;1.00;;;;;;5139273;27;20421;-58
2023/10/03 02:50:21;;;;;;;9.43;3.30;;;19.00;1.00;;;;;;5139372;27;20426;-58
2023/10/03 02:52:49;;;;;;;7.75;3.15;;;19.00;1.00;;;;;;5139151;27;20506;-58
2023/10/03 02:55:17;;;;;;;8.07;2.72;;;19.00;1.00;;;;;;5139525;27;20425;-58
2023/10/03 02:57:44;;;;;;;6.95;3.28;;;19.00;1.00;;;;;;5139323;27;20440;-58
2023/10/03 03:00:13;;;;;;;8.65;2.53;;;19.00;1.00;;;;;;5139365;27;20833;-58
2023/10/03 03:02:46;;;;;;;8.50;2.00;;;18.90;1.00;;;;;;5138687;27;20410;-58
2023/10/03 03:05:16;;;;;;;8.73;2.85;;;18.90;1.00;;;;;;5137046;27;20418;-58
2023/10/03 03:07:45;;;;;;;8.98;2.58;;;18.90;1.00;;;;;;5138864;27;20493;-58
2023/10/03 03:10:14;;;;;;;6.97;2.85;;;18.90;1.00;;;;;;5138914;27;20996;-58
2023/10/03 03:12:43;;;;;;;7.90;2.38;;;18.90;1.00;;;;;;5138749;27;20413;-59
2023/10/03 03:15:12;;;;;;;9.43;2.60;;;18.90;1.00;;;;;;5138646;27;20422;-58
2023/10/03 03:17:41;;;;;;;7.40;3.17;;;19.00;1.00;;;;;;5138595;27;20418;-58
2023/10/03 03:20:20;;;;;;;8.33;2.83;;;19.00;1.00;;;;;;5139133;27;20422;-58
2023/10/03 03:22:50;;;;;;;7.40;2.95;;;18.90;99.90;;;;;;5138180;27;20429;-58
2023/10/03 03:25:24;;;;;;;7.28;2.60;;;18.90;1.00;;;;;;5137815;27;20454;-58
2023/10/03 03:27:54;;;;;;;7.45;1.85;;;19.00;99.90;;;;;;5138251;27;20429;-58
2023/10/03 03:30:34;;;;;;;5.70;2.40;;;19.00;99.90;;;;;;5138115;27;20768;-58
2023/10/03 03:33:04;;;;;;;7.53;2.05;;;18.90;99.90;;;;;;5131601;27;20421;-59
2023/10/03 03:35:38;;;;;;;7.60;2.50;;;19.00;99.90;;;;;;5126148;27;20654;-59
2023/10/03 03:38:08;;;;;;;6.32;2.25;;;19.00;1.00;;;;;;5137245;27;20426;-61
2023/10/03 03:40:36;;;;;;;5.60;1.93;;;19.00;1.00;;;;;;5137021;27;20526;-58
2023/10/03 03:43:05;;;;;;;5.40;1.55;;;19.10;1.00;;;;;;5137677;27;20433;-58
2023/10/03 03:45:33;;;;;;;5.63;1.77;;;19.10;99.90;;;;;;5137173;27;20837;-58
2023/10/03 03:48:00;;;;;;;6.05;2.20;;;19.10;70.90;;;;;;5133289;27;20421;-58
2023/10/03 03:50:29;;;;;;;7.15;2.40;;;19.10;1.00;;;;;;5125628;27;20434;-58
2023/10/03 03:52:58;;;;;;;6.20;1.88;;;19.10;1.00;;;;;;5138202;27;20702;-58
2023/10/03 03:55:29;;;;;;;3.42;1.60;;;19.10;99.90;;;;;;5138330;27;20425;-58
2023/10/03 03:57:59;;;;;;;3.77;1.80;;;19.20;99.90;;;;;;5138351;27;20445;-58
2023/10/03 04:00:28;;;;;;;5.40;2.00;;;19.10;59.70;;;;;;5138103;27;20728;-58
2023/10/03 04:02:59;;;;;;;5.25;1.75;;;19.20;43.80;;;;;;5137677;27;20446;-58
2023/10/03 04:05:27;;;;;;;7.00;1.90;;;19.20;1.00;;;;;;5136551;27;20468;-57
2023/10/03 04:07:54;;;;;;;6.18;2.00;;;19.20;1.00;;;;;;5136766;27;20422;-58
2023/10/03 04:10:22;;;;;;;8.02;2.25;;;19.20;99.90;;;;;;5137973;27;20517;-59
2023/10/03 04:12:51;;;;;;;7.97;2.40;;;19.20;99.90;;;;;;5137935;27;20422;-58
2023/10/03 04:15:19;;;;;;;5.82;1.73;;;19.20;99.90;;;;;;5137701;27;20423;-58
2023/10/03 04:17:48;;;;;;;5.20;1.80;;;19.20;99.90;;;;;;5136356;27;20726;-59
2023/10/03 04:20:23;;;;;;;5.53;1.58;;;19.20;99.90;;;;;;5121266;27;20442;-58
2023/10/03 04:22:51;;;;;;;7.20;1.30;;;19.20;99.90;;;;;;5136620;27;20509;-58
2023/10/03 04:25:19;;;;;;;5.30;1.57;;;19.20;99.90;;;;;;5136857;27;20505;-58
2023/10/03 04:27:48;;;;;;;5.63;1.40;;;19.20;1.00;;;;;;5135506;27;20429;-58
2023/10/03 04:30:20;;;;;;;4.43;1.40;;;19.30;1.00;;;;;;5135339;27;20471;-58
2023/10/03 04:32:48;;;;;;;4.03;1.50;;;19.30;1.00;;;;;;5136051;27;20414;-58
2023/10/03 04:35:18;;;;;;;3.97;1.50;;;19.30;1.00;;;;;;5136755;27;20411;-59
2023/10/03 04:37:46;;;;;;;2.47;1.30;;;19.30;1.00;;;;;;5137649;27;20426;-58
2023/10/03 04:40:15;;;;;;;5.85;1.80;;;19.30;99.90;;;;;;5137081;27;20418;-58
2023/10/03 04:42:43;;;;;;;4.30;1.55;;;19.30;99.90;;;;;;5137246;27;20465;-57
2023/10/03 04:45:14;;;;;;;4.63;1.80;;;19.40;99.90;;;;;;5137234;27;20716;-57
2023/10/03 04:47:45;;;;;;;4.20;1.92;;;19.40;99.90;;;;;;5137484;27;20437;-58
2023/10/03 04:50:16;;;;;;;4.15;1.50;;;19.40;97.70;;;;;;5136753;27;20427;-57
2023/10/03 04:52:43;;;;;;;3.45;1.30;;;19.40;1.00;;;;;;5137002;27;20422;-60
2023/10/03 04:55:10;;;;;;;3.78;1.40;;;19.50;1.00;;;;;;5137008;27;20475;-59
2023/10/03 04:57:41;;;;;;;5.47;1.50;;;19.60;1.00;;;;;;5136995;27;20418;-59
2023/10/03 05:00:10;;;;;;;3.72;1.30;;;19.60;1.00;;;;;;5136339;27;20426;-57
2023/10/03 05:02:37;;;;;;;3.20;1.20;;;19.70;1.00;;;;;;5134783;27;20417;-59
2023/10/03 05:05:06;;;;;;;2.70;1.40;;;19.60;1.00;;;;;;5136756;27;20611;-59
2023/10/03 05:07:34;;;;;;;3.92;1.30;;;19.60;1.00;;;;;;5136562;27;20428;-59
2023/10/03 05:10:01;;;;;;;3.63;1.27;;;19.60;1.00;;;;;;5136571;27;20503;-58
2023/10/03 05:12:28;;;;;;;2.80;1.20;;;19.60;1.00;;;;;;5136271;27;20424;-58
2023/10/03 05:14:56;;;;;;;4.00;1.17;;;19.60;1.00;;;;;;5136639;27;20411;-59
2023/10/03 05:17:24;;;;;;;2.65;1.30;;;19.70;1.00;;;;;;5136547;27;20451;-59
2023/10/03 05:19:51;;;;;;;5.80;1.58;;;19.70;1.00;;;;;;5136764;27;20521;-59
2023/10/03 05:22:20;;;;;;;4.35;1.30;;;19.70;1.00;;;;;;5136577;27;20419;-59
2023/10/03 05:24:49;;;;;;;3.15;1.20;;;19.60;1.00;;;;;;5136100;27;20445;-59
2023/10/03 05:27:16;;;;;;;5.03;1.70;;;19.60;1.00;;;;;;5136508;27;20422;-58
2023/10/03 05:29:44;;;;;;;3.25;1.20;;;19.50;1.00;;;;;;5136065;27;20421;-57
2023/10/03 05:32:12;;;;;;;3.40;1.30;;;19.50;1.00;;;;;;5136119;27;20447;-59
2023/10/03 05:34:39;;;;;;;2.70;1.20;;;19.40;1.00;;;;;;5135505;27;20422;-59
2023/10/03 05:37:06;;;;;;;3.92;1.30;;;19.40;1.00;;;;;;5135855;27;20528;-59
2023/10/03 05:39:35;;;;;;;3.20;1.20;;;19.40;1.00;;;;;;5136296;27;20788;-59
2023/10/03 05:42:02;;;;;;;2.50;1.10;;;19.30;1.00;;;;;;5136270;27;20407;-59
2023/10/03 05:44:29;;;;;;;5.30;1.40;;;19.30;1.00;;;;;;5136158;27;20705;-58
2023/10/03 05:46:56;;;;;;;3.85;1.58;;;19.20;1.00;;;;;;5135257;27;20761;-58
2023/10/03 05:49:25;;;;;;;2.88;1.13;;;19.30;1.00;;;;;;5136007;27;20679;-59
2023/10/03 05:51:55;;;;;;;3.28;1.23;;;19.40;1.00;;;;;;5136137;27;20426;-58
2023/10/03 05:54:24;;;;;;;2.90;1.20;;;19.40;1.00;;;;;;5134462;28;20422;-58
2023/10/03 05:56:54;;;;;;;3.80;1.20;;;19.50;1.00;;;;;;5135627;28;20410;-58
2023/10/03 05:59:21;;;;;;;3.03;1.30;;;19.60;1.00;;;;;;5135166;28;20831;-58
2023/10/03 06:01:49;;;;;;;3.63;1.10;;;19.70;1.00;;;;;;5134861;28;20531;-57
2023/10/03 06:04:16;;;;;;;2.80;1.23;;;19.70;99.90;;;;;;5135702;28;20428;-59
2023/10/03 06:06:44;;;;;;;4.43;1.27;;;19.80;99.90;;;;;;5134770;28;20517;-58
2023/10/03 06:09:12;;;;;;;2.30;1.10;;;19.90;99.90;;;;;;5135586;28;20437;-58
2023/10/03 06:11:39;;;;;;;4.10;1.20;;;20.00;99.90;;;;;;5135530;27;20521;-59
2023/10/03 06:14:08;;;;;;;2.50;1.10;;;20.00;99.90;;;;;;5139890;27;20837;-57
2023/10/03 06:16:36;;;;;;;3.88;1.23;;;20.10;99.90;;;;;;5140256;27;20520;-57
2023/10/03 06:19:03;;;;;;;2.45;1.00;;;20.10;99.90;;;;;;5123792;27;20429;-58
2023/10/03 06:21:30;;;;;;;3.03;1.20;;;20.20;99.90;;;;;;5139717;27;20411;-59
2023/10/03 06:23:58;;;;;;;2.95;1.20;;;20.20;99.90;;;;;;5139632;27;20705;-58
2023/10/03 06:26:25;;;;;;;2.70;1.13;;;20.30;99.90;;;;;;5140049;27;20415;-57
2023/10/03 06:28:52;;;;;;;2.27;1.00;;;20.30;99.90;;;;;;5139940;27;20497;-58
2023/10/03 06:31:21;;;;;;;2.90;1.30;;;20.20;99.90;;;;;;5138509;27;20517;-59
2023/10/03 06:33:49;;;;;;;2.30;1.10;;;20.30;99.90;;;;;;5137356;27;20441;-59
2023/10/03 06:36:17;;;;;;;3.23;1.00;;;20.30;99.90;;;;;;5136675;27;20429;-58
2023/10/03 06:38:44;;;;;;;2.90;1.10;;;20.30;99.90;;;;;;5136943;27;20414;-59
2023/10/03 06:41:17;;;;;;;2.83;1.20;;;20.30;99.90;;;;;;5136690;27;20497;-58
2023/10/03 06:43:44;;;;;;;3.60;1.10;;;20.30;99.90;;;;;;5136567;27;20534;-59
2023/10/03 06:46:11;;;;;;;3.05;0.95;;;20.30;99.90;;;;;;5138272;27;20422;-59
2023/10/03 06:48:40;;;;;;;5.70;1.50;;;20.30;99.90;;;;;;5122981;27;20551;-58
2023/10/03 06:51:09;;;;;;;3.10;1.00;;;20.20;99.90;;;;;;5138366;27;20516;-59
2023/10/03 06:53:36;;;;;;;1.80;1.00;;;20.30;99.90;;;;;;5138314;27;20415;-59
2023/10/03 06:56:03;;;;;;;3.10;1.00;;;20.40;99.90;;;;;;5139138;27;20433;-59
2023/10/03 06:58:31;;;;;;;4.25;1.20;;;20.40;99.90;;;;;;5139228;27;20657;-59
2023/10/03 07:00:58;;;;;;;3.38;1.10;;;20.50;99.90;;;;;;5139156;27;20842;-59
2023/10/03 07:03:25;;;;;;;3.00;1.52;;;20.60;99.90;;;;;;5126707;27;20516;-58
2023/10/03 07:05:54;;;;;;;2.70;1.10;;;20.80;99.90;;;;;;5132981;27;20852;-58
2023/10/03 07:08:21;;;;;;;4.07;1.10;;;20.90;99.90;;;;;;5139252;27;20501;-59
2023/10/03 07:10:48;;;;;;;1.98;0.90;;;21.00;99.90;;;;;;5139115;27;20861;-59
2023/10/03 07:13:16;;;;;;;1.65;1.30;;;21.20;99.90;;;;;;5137808;27;20426;-59
2023/10/03 07:15:44;;;;;;;3.30;1.00;;;21.30;99.90;;;;;;5137875;27;20422;-59
2023/10/03 07:18:11;;;;;;;2.30;1.00;;;21.50;99.90;;;;;;5130184;27;20775;-59
2023/10/03 07:20:40;;;;;;;1.90;0.80;;;21.60;95.00;;;;;;5129796;27;20523;-59
2023/10/03 07:23:09;;;;;;;1.48;0.80;;;21.80;23.90;;;;;;5139229;27;20471;-59
2023/10/03 07:25:36;;;;;;;3.17;0.90;;;22.00;1.00;;;;;;5137095;27;20486;-59
2023/10/03 07:28:04;;;;;;;1.77;1.00;;;22.20;1.00;;;;;;5139048;27;20487;-59
2023/10/03 07:30:31;;;;;;;2.10;0.90;;;22.30;1.00;;;;;;5138735;27;20414;-58
2023/10/03 07:32:58;;;;;;;1.40;0.80;;;22.40;1.00;;;;;;5133773;27;20788;-58
2023/10/03 07:35:25;;;;;;;1.70;0.90;;;22.60;1.00;;;;;;5125253;27;20407;-58
2023/10/03 07:37:53;;;;;;;2.10;0.90;;;22.70;1.00;;;;;;5137387;27;20423;-56
2023/10/03 07:40:23;;;;;;;2.08;0.95;;;22.70;1.00;;;;;;5138343;27;20486;-59
2023/10/03 07:42:50;;;;;;;1.60;0.90;;;22.80;1.00;;;;;;5138193;27;20419;-58
2023/10/03 07:45:18;;;;;;;2.70;0.90;;;22.80;1.00;;;;;;5137673;27;20421;-58
2023/10/03 07:47:46;;;;;;;2.28;1.08;;;22.80;1.00;;;;;;5136779;27;20870;-58
2023/10/03 07:50:13;;;;;;;1.92;0.90;;;22.80;1.00;;;;;;5137561;27;20521;-59
2023/10/03 07:52:48;;;;;;;1.70;1.00;;;22.80;1.00;;;;;;5137972;27;20433;-59
2023/10/03 07:55:16;;;;;;;1.70;1.10;;;22.90;1.00;;;;;;5137655;27;20886;-60
2023/10/03 07:57:44;;;;;;;2.70;1.10;;;22.90;1.00;;;;;;5135268;27;20499;-58
2023/10/03 08:00:20;;;;;;;2.15;1.00;;;22.90;1.00;;;;;;5135539;27;20778;-59
2023/10/03 08:02:49;;;;;;;2.70;0.93;;;23.00;1.00;;;;;;5136236;27;20506;-58
2023/10/03 08:05:17;;;;;;;2.05;1.00;;;23.10;1.00;;;;;;5135554;27;20415;-58
2023/10/03 08:07:47;;;;;;;2.00;1.00;;;23.20;1.00;;;;;;5134753;27;20530;-59
2023/10/03 08:10:16;;;;;;;1.80;0.90;;;23.30;1.00;;;;;;5135657;27;20426;-61
2023/10/03 08:12:47;;;;;;;3.17;0.80;;;23.50;1.00;;;;;;5134855;27;20430;-59
2023/10/03 08:15:22;;;;;;;1.98;0.90;;;23.60;1.00;;;;;;5135339;27;20455;-60
2023/10/03 08:17:53;;;;;;;2.42;0.90;;;23.70;1.00;;;;;;5133934;27;20422;-59
2023/10/03 08:20:21;;;;;;;1.75;0.90;;;23.90;1.00;;;;;;5122404;27;20447;-59
2023/10/03 08:22:51;;;;;;;1.50;1.00;;;24.00;1.00;;;;;;5135875;27;20505;-59
2023/10/03 08:25:21;;;;;;;2.60;0.90;;;24.20;1.00;;;;;;5135670;27;20418;-59
2023/10/03 08:27:49;;;;;;;2.00;0.85;;;24.30;1.00;;;;;;5135917;27;20475;-59
2023/10/03 08:30:28;;;;;;;1.58;0.88;;;24.50;1.00;;;;;;5135704;27;20442;-59
2023/10/03 08:32:56;;;;;;;1.40;0.80;;;24.60;1.00;;;;;;5132522;27;20430;-60
2023/10/03 08:35:34;;;;;;;1.55;0.80;;;24.70;1.00;;;;;;5122196;27;20422;-58
2023/10/03 08:38:05;;;;;;;1.70;0.90;;;24.90;1.00;;;;;;5135529;27;20431;-59
2023/10/03 08:40:45;;;;;;;1.95;0.90;;;24.90;1.00;;;;;;5133563;27;20423;-58
2023/10/03 08:43:14;;;;;;;2.50;1.00;;;24.80;1.00;;;;;;5135717;27;20418;-58
2023/10/03 08:45:43;;;;;;;1.67;0.80;;;24.80;1.00;;;;;;5136177;27;20454;-58
2023/10/03 08:48:11;;;;;;;1.20;0.80;;;24.80;1.00;;;;;;5134664;27;20422;-58
2023/10/03 08:50:46;;;;;;;2.65;0.90;;;24.90;1.00;;;;;;5136063;27;20463;-60
2023/10/03 08:53:16;;;;;;;1.50;0.90;;;24.90;1.00;;;;;;5135690;27;20426;-58
2023/10/03 08:55:47;;;;;;;1.13;0.80;;;25.00;1.00;;;;;;5136797;27;20418;-59
2023/10/03 08:58:18;;;;;;;2.00;0.90;;;25.10;1.00;;;;;;5135954;27;20445;-58
2023/10/03 09:00:49;;;;;;;2.00;0.80;;;25.20;1.00;;;;;;5136219;27;20426;-59
2023/10/03 09:03:18;;;;;;;1.40;0.90;;;25.20;1.00;;;;;;5125992;27;20428;-59
2023/10/03 09:05:48;;;;;;;1.40;0.90;;;25.40;1.00;;;;;;5127719;27;20415;-59
2023/10/03 09:08:16;;;;;;;2.50;0.90;;;25.40;1.00;;;;;;5135226;27;20794;-59
2023/10/03 09:10:52;;;;;;;1.38;0.90;;;25.40;1.00;;;;;;5134119;27;20460;-59
2023/10/03 09:13:24;;;;;;;1.30;0.80;;;25.60;1.00;;;;;;5132615;27;20430;-59
2023/10/03 09:15:59;;;;;;;2.05;0.80;;;25.70;1.00;;;;;;5135494;27;20733;-59
2023/10/03 09:18:30;;;;;;;4.85;0.82;;;25.70;1.00;;;;;;5133762;27;20829;-59
2023/10/03 09:21:00;;;;;;;1.70;1.00;;;25.70;1.00;;;;;;5136040;27;20498;-59
2023/10/03 09:23:38;;;;;;;1.10;0.80;;;25.70;1.00;;;;;;5135861;27;20414;-59
2023/10/03 09:26:06;;;;;;;1.60;0.90;;;25.70;1.00;;;;;;5136629;27;20421;-59
2023/10/03 09:28:40;;;;;;;1.40;0.82;;;25.70;1.00;;;;;;5136489;27;20422;-59
2023/10/03 09:31:09;;;;;;;1.40;0.90;;;25.60;1.00;;;;;;5136736;27;20422;-59
2023/10/03 09:33:42;;;;;;;1.40;0.90;;;25.50;1.00;;;;;;5135014;27;20449;-58
2023/10/03 09:36:10;;;;;;;1.97;0.90;;;25.50;1.00;;;;;;5136296;27;20450;-59
2023/10/03 09:38:47;;;;;;;1.20;0.80;;;25.60;1.00;;;;;;5135236;27;20414;-60
2023/10/03 09:41:21;;;;;;;1.90;0.90;;;25.60;1.00;;;;;;5135344;27;20527;-58
2023/10/03 09:43:53;;;;;;;1.52;0.88;;;25.60;1.00;;;;;;5134821;27;20879;-59
2023/10/03 09:46:38;;;;;;;1.50;0.80;;;25.80;1.00;;;;;;5134297;27;20710;-59
2023/10/03 09:49:09;;;;;;;1.60;1.00;;;25.90;1.00;;;;;;5134629;27;20723;-59
2023/10/03 09:51:51;;;;;;;1.90;0.90;;;26.10;1.00;;;;;;5136277;27;20520;-58
2023/10/03 09:54:24;;;;;;;2.10;0.80;;;26.20;1.00;;;;;;5134904;27;20442;-58
2023/10/03 09:56:55;;;;;;;1.98;0.90;;;26.50;1.00;;;;;;5135355;28;20442;-58
2023/10/03 09:59:25;;;;;;;1.93;0.90;;;26.80;1.00;;;;;;5134122;28;20519;-58
2023/10/03 10:01:56;;;;;;;1.80;0.90;;;27.00;1.00;;;;;;5133397;28;21046;-60
2023/10/03 10:04:27;;;;;;;2.10;0.90;;;27.20;1.00;;;;;;5135097;28;20513;-59
2023/10/03 10:07:14;;;;;;;1.90;0.82;;;27.20;1.00;;;;;;5132937;28;20505;-60
2023/10/03 10:09:52;;;;;;;1.20;0.80;;;27.20;1.00;;;;;;5133480;28;20535;-59
2023/10/03 10:12:19;;;;;;;1.95;0.90;;;27.10;1.00;;;;;;5132922;28;20436;-59
2023/10/03 10:15:13;;;;;;;2.20;1.00;;;27.00;1.00;;;;;;5133257;28;20450;-57
2023/10/03 10:17:58;;;;;;;1.40;0.80;;;27.00;1.00;;;;;;5134064;28;20418;-58
2023/10/03 10:20:37;;;;;;;1.52;0.95;;;26.90;1.00;;;;;;5133825;28;20494;-59
2023/10/03 10:23:20;;;;;;;1.40;0.80;;;26.90;1.00;;;;;;5135032;28;20414;-59
2023/10/03 10:25:56;;;;;;;1.40;0.90;;;26.90;1.00;;;;;;5135679;28;20489;-59
2023/10/03 10:28:34;;;;;;;1.75;0.80;;;27.10;1.00;;;;;;5135455;28;20426;-59
2023/10/03 10:31:21;;;;;;;2.30;1.00;;;27.00;1.00;;;;;;5135187;28;20456;-59
2023/10/03 10:33:51;;;;;;;1.50;0.90;;;27.10;1.00;;;;;;5135339;28;20884;-58
2023/10/03 10:36:20;;;;;;;2.10;0.80;;;27.10;1.00;;;;;;5135096;28;20414;-58
2023/10/03 10:38:53;;;;;;;1.30;0.80;;;27.00;1.00;;;;;;5134912;28;20714;-58
2023/10/03 10:41:33;;;;;;;1.60;0.90;;;26.90;1.00;;;;;;5135023;28;20442;-59
2023/10/03 10:44:16;;;;;;;2.20;0.90;;;26.90;1.00;;;;;;5133391;28;20880;-59
2023/10/03 10:46:46;;;;;;;1.90;1.00;;;26.80;1.00;;;;;;5134239;28;20525;-59
2023/10/03 10:49:57;;;;;;;1.30;0.90;;;26.90;1.00;;;;;;5134871;28;20429;-60
2023/10/03 10:52:24;;;;;;;1.30;0.80;;;27.20;1.00;;;;;;5134785;28;20434;-59
2023/10/03 10:54:51;;;;;;;2.50;0.80;;;27.20;1.00;;;;;;5135064;28;20446;-59
2023/10/03 10:57:19;;;;;;;1.20;0.80;;;27.40;1.00;;;;;;5134965;28;20926;-59
2023/10/03 10:59:47;;;;;;;1.60;0.90;;;27.40;1.00;;;;;;5137045;27;20414;-59
2023/10/03 11:02:20;;;;;;;1.30;0.80;;;27.60;1.00;;;;;;5138702;27;20450;-59
2023/10/03 11:04:54;;;;;;;1.60;0.90;;;28.00;1.00;;;;;;5138773;27;20513;-59
2023/10/03 11:07:22;;;;;;;3.00;1.00;;;28.20;1.00;;;;;;5137697;27;20423;-59
2023/10/03 11:09:50;;;;;;;3.63;1.05;;;28.50;1.00;;;;;;5139203;27;20418;-59
2023/10/03 11:12:24;;;;;;;1.38;0.90;;;28.50;1.00;;;;;;5137816;27;20437;-59
2023/10/03 11:14:52;;;;;;;1.20;0.80;;;28.20;1.00;;;;;;5138422;27;20399;-58
2023/10/03 11:17:21;;;;;;;1.60;0.80;;;28.20;1.00;;;;;;5138464;27;20407;-59
2023/10/03 11:19:49;;;;;;;2.00;0.98;;;28.30;1.00;;;;;;5138004;27;20422;-59
2023/10/03 11:22:17;;;;;;;1.40;0.90;;;28.40;1.00;;;;;;5138906;27;20438;-59
2023/10/03 11:24:45;;;;;;;2.50;0.90;;;28.20;1.00;;;;;;5138703;27;20418;-59
2023/10/03 11:27:23;;;;;;;2.20;1.07;;;28.00;1.00;;;;;;5138689;27;20418;-59
2023/10/03 11:29:50;;;;;;;1.60;1.00;;;27.80;1.00;;;;;;5138648;27;20788;-59
2023/10/03 11:32:24;;;;;;;2.10;1.00;;;27.80;1.00;;;;;;5138131;27;20423;-59
2023/10/03 11:34:53;;;;;;;1.80;1.00;;;27.70;1.00;;;;;;5138342;27;20430;-60
2023/10/03 11:37:36;;;;;;;2.00;1.00;;;27.60;1.00;;;;;;5137751;27;20426;-60
2023/10/03 11:40:13;;;;;;;1.80;1.00;;;27.60;1.00;;;;;;5138714;27;20438;-60
2023/10/03 11:42:55;;;;;;;4.55;1.00;;;27.70;1.00;;;;;;5138177;27;20709;-60
2023/10/03 11:45:23;;;;;;;1.70;1.00;;;27.70;1.00;;;;;;5137430;27;20457;-59
2023/10/03 11:48:05;;;;;;;2.60;1.20;;;27.60;1.00;;;;;;5134927;27;20465;-59
2023/10/03 11:50:34;;;;;;;2.07;1.10;;;27.60;1.00;;;;;;5127319;27;20898;-59
2023/10/03 11:53:02;;;;;;;1.40;0.90;;;27.50;1.00;;;;;;5138299;27;20431;-59
2023/10/03 11:55:31;;;;;;;2.38;1.00;;;27.60;1.00;;;;;;5120084;27;20801;-59
2023/10/03 11:57:59;;;;;;;2.20;1.00;;;27.70;1.00;;;;;;5115635;28;20526;-59
2023/10/03 12:00:26;;;;;;;1.57;1.00;;;27.70;1.00;;;;;;5115910;28;20416;-60
2023/10/03 12:02:54;;;;;;;1.50;0.90;;;27.50;1.00;;;;;;5113036;28;20412;-60
2023/10/03 12:05:25;;;;;;;2.83;1.00;;;27.40;1.00;;;;;;5103291;28;20412;-59
2023/10/03 12:07:56;;;;;;;1.75;1.00;;;27.30;1.00;;;;;;5115680;28;20424;-60
2023/10/03 12:10:26;;;;;;;1.80;1.00;;;27.40;1.00;;;;;;5115753;28;20427;-60
2023/10/03 12:12:53;;;;;;;2.30;1.13;;;27.30;1.00;;;;;;5116633;28;20434;-59
2023/10/03 12:15:23;;;;;;;1.83;1.00;;;27.30;1.00;;;;;;5117170;28;20447;-59
2023/10/03 12:17:51;;;;;;;1.70;0.98;;;27.20;1.00;;;;;;5114493;28;20427;-60
2023/10/03 12:20:20;;;;;;;2.45;1.30;;;27.30;1.00;;;;;;5102385;28;20416;-61
2023/10/03 12:22:49;;;;;;;1.60;1.20;;;27.40;1.00;;;;;;5117071;28;20480;-61
2023/10/03 12:25:18;;;;;;;1.55;0.90;;;27.30;1.00;;;;;;5116402;28;20510;-60
2023/10/03 12:27:46;;;;;;;2.70;1.20;;;27.30;1.00;;;;;;5116445;28;20887;-62
2023/10/03 12:30:15;;;;;;;1.50;1.00;;;27.00;1.00;;;;;;5115445;28;20416;-60
2023/10/03 12:32:44;;;;;;;1.35;1.00;;;27.10;1.00;;;;;;5116021;28;20497;-61
2023/10/03 12:35:12;;;;;;;2.10;1.00;;;27.20;1.00;;;;;;5115861;28;20431;-59
2023/10/03 12:37:41;;;;;;;1.90;1.00;;;27.20;1.00;;;;;;5115942;28;20431;-61
2023/10/03 12:40:13;;;;;;;1.40;1.00;;;27.00;1.00;;;;;;5115992;28;20485;-60
2023/10/03 12:42:41;;;;;;;1.60;1.00;;;27.00;1.00;;;;;;5116241;28;20427;-62
2023/10/03 12:45:12;;;;;;;1.90;1.00;;;26.90;1.00;;;;;;5114940;28;20704;-62
2023/10/03 12:47:39;;;;;;;2.17;1.03;;;26.80;1.00;;;;;;5113587;28;20420;-59
2023/10/03 12:50:09;;;;;;;1.60;0.93;;;26.60;1.00;;;;;;5115151;28;20424;-59
2023/10/03 12:52:38;;;;;;;1.80;1.00;;;26.50;1.00;;;;;;5114146;28;20436;-60
2023/10/03 12:55:07;;;;;;;1.70;0.90;;;26.50;1.00;;;;;;5115327;28;20839;-60
2023/10/03 12:57:36;;;;;;;2.22;1.00;;;26.60;1.00;;;;;;5115209;28;20437;-60
2023/10/03 13:00:06;;;;;;;1.50;1.00;;;26.50;1.00;;;;;;5114954;28;20497;-59
2023/10/03 13:02:34;;;;;;;2.22;1.05;;;26.50;1.00;;;;;;5115183;28;20419;-60
2023/10/03 13:05:01;;;;;;;3.83;1.10;;;26.40;1.00;;;;;;5116275;28;20511;-60
2023/10/03 13:07:30;;;;;;;1.50;1.00;;;26.20;1.00;;;;;;5115799;28;20427;-61
2023/10/03 13:09:58;;;;;;;1.60;1.00;;;26.10;1.00;;;;;;5115546;28;20779;-60